sensor_id;sensor_type;location;lat;lon;timestamp;P1;durP1;ratioP1;P2;durP2;ratioP2
69410;SDS011;56604;48.652;9.194;2023-08-06T00:01:27;6.13;;;5.53;;
69410;SDS011;56604;48.652;9.194;2023-08-06T00:03:52;8.53;;;5.10;;
69410;SDS011;56604;48.652;9.194;2023-08-06T00:06:18;5.70;;;5.10;;
69410;SDS011;56604;48.652;9.194;2023-08-06T00:08:44;7.10;;;5.10;;
69410;SDS011;56604;48.652;9.194;2023-08-06T00:11:09;6.63;;;5.00;;
69410;SDS011;56604;48.652;9.194;2023-08-06T00:13:34;14.67;;;5.00;;
69410;SDS011;56604;48.652;9.194;2023-08-06T00:16:12;5.77;;;5.20;;
69410;SDS011;56604;48.652;9.194;2023-08-06T00:18:39;5.50;;;5.00;;
69410;SDS011;56604;48.652;9.194;2023-08-06T00:21:04;6.67;;;6.00;;
69410;SDS011;56604;48.652;9.194;2023-08-06T00:23:30;6.23;;;5.73;;
69410;SDS011;56604;48.652;9.194;2023-08-06T00:25:55;6.70;;;5.70;;
69410;SDS011;56604;48.652;9.194;2023-08-06T00:28:20;6.37;;;5.77;;
69410;SDS011;56604;48.652;9.194;2023-08-06T00:30:45;8.33;;;5.80;;
69410;SDS011;56604;48.652;9.194;2023-08-06T00:33:11;6.23;;;5.63;;
69410;SDS011;56604;48.652;9.194;2023-08-06T00:35:36;6.37;;;5.73;;
69410;SDS011;56604;48.652;9.194;2023-08-06T00:38:01;5.10;;;4.70;;
69410;SDS011;56604;48.652;9.194;2023-08-06T00:40:27;4.83;;;4.53;;
69410;SDS011;56604;48.652;9.194;2023-08-06T00:42:54;4.80;;;4.50;;
69410;SDS011;56604;48.652;9.194;2023-08-06T00:45:19;4.33;;;4.07;;
69410;SDS011;56604;48.652;9.194;2023-08-06T00:47:44;4.37;;;4.00;;
69410;SDS011;56604;48.652;9.194;2023-08-06T00:50:11;4.80;;;4.40;;
69410;SDS011;56604;48.652;9.194;2023-08-06T00:52:36;6.93;;;4.23;;
69410;SDS011;56604;48.652;9.194;2023-08-06T00:55:02;5.03;;;4.30;;
69410;SDS011;56604;48.652;9.194;2023-08-06T00:57:28;5.80;;;3.87;;
69410;SDS011;56604;48.652;9.194;2023-08-06T00:59:53;11.47;;;4.40;;
69410;SDS011;56604;48.652;9.194;2023-08-06T01:02:19;4.13;;;3.93;;
69410;SDS011;56604;48.652;9.194;2023-08-06T01:04:44;5.20;;;3.87;;
69410;SDS011;56604;48.652;9.194;2023-08-06T01:10:07;4.43;;;3.50;;
69410;SDS011;56604;48.652;9.194;2023-08-06T01:15:43;4.77;;;4.07;;
69410;SDS011;56604;48.652;9.194;2023-08-06T01:18:14;12.73;;;4.00;;
69410;SDS011;56604;48.652;9.194;2023-08-06T01:20:40;4.53;;;4.20;;
69410;SDS011;56604;48.652;9.194;2023-08-06T01:23:05;4.60;;;4.20;;
69410;SDS011;56604;48.652;9.194;2023-08-06T01:25:34;4.77;;;4.37;;
69410;SDS011;56604;48.652;9.194;2023-08-06T01:28:08;4.47;;;4.17;;
69410;SDS011;56604;48.652;9.194;2023-08-06T01:30:41;4.60;;;4.20;;
69410;SDS011;56604;48.652;9.194;2023-08-06T01:33:08;4.00;;;3.80;;
69410;SDS011;56604;48.652;9.194;2023-08-06T01:35:39;8.40;;;4.80;;
69410;SDS011;56604;48.652;9.194;2023-08-06T01:38:05;4.67;;;4.27;;
69410;SDS011;56604;48.652;9.194;2023-08-06T01:40:31;6.70;;;4.70;;
69410;SDS011;56604;48.652;9.194;2023-08-06T01:42:57;4.70;;;4.30;;
69410;SDS011;56604;48.652;9.194;2023-08-06T01:45:23;5.43;;;4.03;;
69410;SDS011;56604;48.652;9.194;2023-08-06T01:47:49;6.77;;;4.00;;
69410;SDS011;56604;48.652;9.194;2023-08-06T01:50:14;10.20;;;3.90;;
69410;SDS011;56604;48.652;9.194;2023-08-06T01:52:39;5.60;;;3.27;;
69410;SDS011;56604;48.652;9.194;2023-08-06T01:55:05;4.57;;;4.17;;
69410;SDS011;56604;48.652;9.194;2023-08-06T01:57:30;4.13;;;3.67;;
69410;SDS011;56604;48.652;9.194;2023-08-06T01:59:56;3.50;;;3.30;;
69410;SDS011;56604;48.652;9.194;2023-08-06T02:02:22;3.70;;;3.50;;
69410;SDS011;56604;48.652;9.194;2023-08-06T02:04:47;7.93;;;3.90;;
69410;SDS011;56604;48.652;9.194;2023-08-06T02:07:12;9.77;;;4.17;;
69410;SDS011;56604;48.652;9.194;2023-08-06T02:09:37;4.13;;;3.63;;
69410;SDS011;56604;48.652;9.194;2023-08-06T02:12:03;13.43;;;4.07;;
69410;SDS011;56604;48.652;9.194;2023-08-06T02:14:29;9.97;;;3.93;;
69410;SDS011;56604;48.652;9.194;2023-08-06T02:16:54;5.07;;;4.43;;
69410;SDS011;56604;48.652;9.194;2023-08-06T02:19:19;3.70;;;3.40;;
69410;SDS011;56604;48.652;9.194;2023-08-06T02:21:44;3.63;;;3.33;;
69410;SDS011;56604;48.652;9.194;2023-08-06T02:24:10;9.70;;;4.17;;
69410;SDS011;56604;48.652;9.194;2023-08-06T02:26:36;7.10;;;3.90;;
69410;SDS011;56604;48.652;9.194;2023-08-06T02:29:01;4.20;;;3.60;;
69410;SDS011;56604;48.652;9.194;2023-08-06T02:31:26;3.47;;;3.17;;
69410;SDS011;56604;48.652;9.194;2023-08-06T02:33:51;3.00;;;2.73;;
69410;SDS011;56604;48.652;9.194;2023-08-06T02:36:18;7.63;;;3.67;;
69410;SDS011;56604;48.652;9.194;2023-08-06T02:38:44;3.40;;;3.20;;
69410;SDS011;56604;48.652;9.194;2023-08-06T02:41:09;3.50;;;3.20;;
69410;SDS011;56604;48.652;9.194;2023-08-06T02:43:34;4.60;;;3.43;;
69410;SDS011;56604;48.652;9.194;2023-08-06T02:46:00;3.73;;;3.43;;
69410;SDS011;56604;48.652;9.194;2023-08-06T02:48:26;3.97;;;2.80;;
69410;SDS011;56604;48.652;9.194;2023-08-06T02:50:51;3.30;;;3.10;;
69410;SDS011;56604;48.652;9.194;2023-08-06T02:53:16;3.33;;;3.03;;
69410;SDS011;56604;48.652;9.194;2023-08-06T02:55:45;3.80;;;3.50;;
69410;SDS011;56604;48.652;9.194;2023-08-06T02:58:14;3.83;;;3.27;;
69410;SDS011;56604;48.652;9.194;2023-08-06T03:00:40;3.63;;;3.03;;
69410;SDS011;56604;48.652;9.194;2023-08-06T03:03:06;4.27;;;2.90;;
69410;SDS011;56604;48.652;9.194;2023-08-06T03:05:31;4.23;;;3.17;;
69410;SDS011;56604;48.652;9.194;2023-08-06T03:07:56;2.90;;;2.70;;
69410;SDS011;56604;48.652;9.194;2023-08-06T03:10:21;4.33;;;2.37;;
69410;SDS011;56604;48.652;9.194;2023-08-06T03:12:47;4.17;;;2.77;;
69410;SDS011;56604;48.652;9.194;2023-08-06T03:15:12;9.10;;;2.73;;
69410;SDS011;56604;48.652;9.194;2023-08-06T03:17:38;3.37;;;3.17;;
69410;SDS011;56604;48.652;9.194;2023-08-06T03:20:03;8.63;;;2.67;;
69410;SDS011;56604;48.652;9.194;2023-08-06T03:22:29;9.30;;;2.80;;
69410;SDS011;56604;48.652;9.194;2023-08-06T03:24:54;2.73;;;2.53;;
69410;SDS011;56604;48.652;9.194;2023-08-06T03:27:20;4.43;;;2.87;;
69410;SDS011;56604;48.652;9.194;2023-08-06T03:29:48;3.10;;;2.90;;
69410;SDS011;56604;48.652;9.194;2023-08-06T03:32:14;3.00;;;2.80;;
69410;SDS011;56604;48.652;9.194;2023-08-06T03:34:39;9.80;;;2.70;;
69410;SDS011;56604;48.652;9.194;2023-08-06T03:37:04;3.27;;;2.97;;
69410;SDS011;56604;48.652;9.194;2023-08-06T03:39:30;3.10;;;2.70;;
69410;SDS011;56604;48.652;9.194;2023-08-06T03:41:55;4.37;;;2.90;;
69410;SDS011;56604;48.652;9.194;2023-08-06T03:44:21;11.00;;;3.07;;
69410;SDS011;56604;48.652;9.194;2023-08-06T03:46:46;2.87;;;2.77;;
69410;SDS011;56604;48.652;9.194;2023-08-06T03:49:11;2.60;;;2.50;;
69410;SDS011;56604;48.652;9.194;2023-08-06T03:51:37;2.77;;;2.63;;
69410;SDS011;56604;48.652;9.194;2023-08-06T03:54:03;6.50;;;2.80;;
69410;SDS011;56604;48.652;9.194;2023-08-06T03:56:29;2.50;;;2.40;;
69410;SDS011;56604;48.652;9.194;2023-08-06T03:58:54;3.13;;;2.80;;
69410;SDS011;56604;48.652;9.194;2023-08-06T04:01:19;4.93;;;2.70;;
69410;SDS011;56604;48.652;9.194;2023-08-06T04:03:44;4.70;;;2.20;;
69410;SDS011;56604;48.652;9.194;2023-08-06T04:06:10;3.13;;;2.17;;
69410;SDS011;56604;48.652;9.194;2023-08-06T04:08:35;5.80;;;2.47;;
69410;SDS011;56604;48.652;9.194;2023-08-06T04:11:00;2.10;;;1.90;;
69410;SDS011;56604;48.652;9.194;2023-08-06T04:13:26;2.27;;;2.10;;
69410;SDS011;56604;48.652;9.194;2023-08-06T04:15:51;5.53;;;2.23;;
69410;SDS011;56604;48.652;9.194;2023-08-06T04:18:16;6.43;;;2.60;;
69410;SDS011;56604;48.652;9.194;2023-08-06T04:20:42;4.60;;;2.40;;
69410;SDS011;56604;48.652;9.194;2023-08-06T04:23:09;2.20;;;2.00;;
69410;SDS011;56604;48.652;9.194;2023-08-06T04:25:34;2.00;;;1.90;;
69410;SDS011;56604;48.652;9.194;2023-08-06T04:27:59;3.27;;;2.40;;
69410;SDS011;56604;48.652;9.194;2023-08-06T04:30:25;2.40;;;2.03;;
69410;SDS011;56604;48.652;9.194;2023-08-06T04:32:50;2.27;;;1.87;;
69410;SDS011;56604;48.652;9.194;2023-08-06T04:35:16;5.00;;;2.40;;
69410;SDS011;56604;48.652;9.194;2023-08-06T04:37:41;4.43;;;2.20;;
69410;SDS011;56604;48.652;9.194;2023-08-06T04:40:07;1.90;;;1.80;;
69410;SDS011;56604;48.652;9.194;2023-08-06T04:42:32;2.60;;;2.47;;
69410;SDS011;56604;48.652;9.194;2023-08-06T04:44:58;4.67;;;2.17;;
69410;SDS011;56604;48.652;9.194;2023-08-06T04:47:23;3.03;;;1.97;;
69410;SDS011;56604;48.652;9.194;2023-08-06T04:49:50;4.63;;;1.70;;
69410;SDS011;56604;48.652;9.194;2023-08-06T04:52:16;3.00;;;1.37;;
69410;SDS011;56604;48.652;9.194;2023-08-06T04:54:41;1.77;;;1.67;;
69410;SDS011;56604;48.652;9.194;2023-08-06T04:57:07;2.40;;;1.30;;
69410;SDS011;56604;48.652;9.194;2023-08-06T04:59:32;3.37;;;2.20;;
69410;SDS011;56604;48.652;9.194;2023-08-06T05:01:57;2.73;;;1.60;;
69410;SDS011;56604;48.652;9.194;2023-08-06T05:04:23;2.80;;;1.60;;
69410;SDS011;56604;48.652;9.194;2023-08-06T05:06:48;2.50;;;1.70;;
69410;SDS011;56604;48.652;9.194;2023-08-06T05:09:14;4.33;;;1.60;;
69410;SDS011;56604;48.652;9.194;2023-08-06T05:11:39;1.10;;;1.10;;
69410;SDS011;56604;48.652;9.194;2023-08-06T05:14:05;3.03;;;1.80;;
69410;SDS011;56604;48.652;9.194;2023-08-06T05:16:30;1.00;;;1.00;;
69410;SDS011;56604;48.652;9.194;2023-08-06T05:18:56;1.73;;;1.17;;
69410;SDS011;56604;48.652;9.194;2023-08-06T05:21:21;1.20;;;1.10;;
69410;SDS011;56604;48.652;9.194;2023-08-06T05:23:46;1.33;;;0.93;;
69410;SDS011;56604;48.652;9.194;2023-08-06T05:26:12;1.03;;;0.97;;
69410;SDS011;56604;48.652;9.194;2023-08-06T05:28:39;1.73;;;0.80;;
69410;SDS011;56604;48.652;9.194;2023-08-06T05:31:06;1.93;;;1.00;;
69410;SDS011;56604;48.652;9.194;2023-08-06T05:33:31;2.70;;;1.00;;
69410;SDS011;56604;48.652;9.194;2023-08-06T05:35:57;2.30;;;0.90;;
69410;SDS011;56604;48.652;9.194;2023-08-06T05:38:22;4.97;;;1.50;;
69410;SDS011;56604;48.652;9.194;2023-08-06T05:40:48;1.03;;;0.80;;
69410;SDS011;56604;48.652;9.194;2023-08-06T05:43:14;0.90;;;0.90;;
69410;SDS011;56604;48.652;9.194;2023-08-06T05:45:39;4.20;;;1.07;;
69410;SDS011;56604;48.652;9.194;2023-08-06T05:48:04;1.60;;;1.20;;
69410;SDS011;56604;48.652;9.194;2023-08-06T05:50:30;2.03;;;1.03;;
69410;SDS011;56604;48.652;9.194;2023-08-06T05:52:55;3.13;;;1.10;;
69410;SDS011;56604;48.652;9.194;2023-08-06T05:55:21;8.23;;;1.27;;
69410;SDS011;56604;48.652;9.194;2023-08-06T05:57:47;1.00;;;1.00;;
69410;SDS011;56604;48.652;9.194;2023-08-06T06:00:12;3.00;;;1.00;;
69410;SDS011;56604;48.652;9.194;2023-08-06T06:02:37;1.40;;;1.20;;
69410;SDS011;56604;48.652;9.194;2023-08-06T06:05:02;1.60;;;1.20;;
69410;SDS011;56604;48.652;9.194;2023-08-06T06:07:28;1.30;;;1.13;;
69410;SDS011;56604;48.652;9.194;2023-08-06T06:09:53;4.60;;;1.30;;
69410;SDS011;56604;48.652;9.194;2023-08-06T06:12:18;1.50;;;1.07;;
69410;SDS011;56604;48.652;9.194;2023-08-06T06:14:45;2.50;;;1.50;;
69410;SDS011;56604;48.652;9.194;2023-08-06T06:17:11;2.30;;;0.97;;
69410;SDS011;56604;48.652;9.194;2023-08-06T06:19:36;1.77;;;1.00;;
69410;SDS011;56604;48.652;9.194;2023-08-06T06:22:01;2.10;;;1.07;;
69410;SDS011;56604;48.652;9.194;2023-08-06T06:24:28;3.03;;;1.13;;
69410;SDS011;56604;48.652;9.194;2023-08-06T06:26:53;6.77;;;1.27;;
69410;SDS011;56604;48.652;9.194;2023-08-06T06:29:19;2.60;;;1.33;;
69410;SDS011;56604;48.652;9.194;2023-08-06T06:31:44;0.80;;;0.80;;
69410;SDS011;56604;48.652;9.194;2023-08-06T06:34:09;2.20;;;1.17;;
69410;SDS011;56604;48.652;9.194;2023-08-06T06:36:35;5.40;;;1.77;;
69410;SDS011;56604;48.652;9.194;2023-08-06T06:39:01;1.10;;;1.00;;
69410;SDS011;56604;48.652;9.194;2023-08-06T06:41:27;2.27;;;1.40;;
69410;SDS011;56604;48.652;9.194;2023-08-06T06:43:55;2.43;;;1.10;;
69410;SDS011;56604;48.652;9.194;2023-08-06T06:46:21;7.10;;;1.40;;
69410;SDS011;56604;48.652;9.194;2023-08-06T06:48:46;1.40;;;1.10;;
69410;SDS011;56604;48.652;9.194;2023-08-06T06:51:11;0.93;;;0.93;;
69410;SDS011;56604;48.652;9.194;2023-08-06T06:53:36;0.83;;;0.83;;
69410;SDS011;56604;48.652;9.194;2023-08-06T06:56:03;2.37;;;0.80;;
69410;SDS011;56604;48.652;9.194;2023-08-06T06:58:30;2.40;;;1.10;;
69410;SDS011;56604;48.652;9.194;2023-08-06T07:00:56;0.87;;;0.80;;
69410;SDS011;56604;48.652;9.194;2023-08-06T07:03:21;1.50;;;0.80;;
69410;SDS011;56604;48.652;9.194;2023-08-06T07:05:47;2.70;;;1.07;;
69410;SDS011;56604;48.652;9.194;2023-08-06T07:08:12;1.43;;;0.90;;
69410;SDS011;56604;48.652;9.194;2023-08-06T07:10:38;6.43;;;0.90;;
69410;SDS011;56604;48.652;9.194;2023-08-06T07:13:05;0.87;;;0.87;;
69410;SDS011;56604;48.652;9.194;2023-08-06T07:15:32;1.60;;;0.93;;
69410;SDS011;56604;48.652;9.194;2023-08-06T07:17:57;0.70;;;0.70;;
69410;SDS011;56604;48.652;9.194;2023-08-06T07:20:23;0.60;;;0.60;;
69410;SDS011;56604;48.652;9.194;2023-08-06T07:22:48;0.70;;;0.70;;
69410;SDS011;56604;48.652;9.194;2023-08-06T07:25:14;1.40;;;0.70;;
69410;SDS011;56604;48.652;9.194;2023-08-06T07:27:40;0.77;;;0.60;;
69410;SDS011;56604;48.652;9.194;2023-08-06T07:30:06;0.60;;;0.60;;
69410;SDS011;56604;48.652;9.194;2023-08-06T07:32:31;0.60;;;0.60;;
69410;SDS011;56604;48.652;9.194;2023-08-06T07:34:57;0.77;;;0.77;;
69410;SDS011;56604;48.652;9.194;2023-08-06T07:37:25;1.23;;;0.90;;
69410;SDS011;56604;48.652;9.194;2023-08-06T07:39:53;0.60;;;0.60;;
69410;SDS011;56604;48.652;9.194;2023-08-06T07:42:18;1.70;;;0.70;;
69410;SDS011;56604;48.652;9.194;2023-08-06T07:44:49;0.60;;;0.60;;
69410;SDS011;56604;48.652;9.194;2023-08-06T07:47:16;0.60;;;0.60;;
69410;SDS011;56604;48.652;9.194;2023-08-06T07:49:41;2.00;;;0.70;;
69410;SDS011;56604;48.652;9.194;2023-08-06T07:52:07;0.93;;;0.50;;
69410;SDS011;56604;48.652;9.194;2023-08-06T07:54:32;0.50;;;0.50;;
69410;SDS011;56604;48.652;9.194;2023-08-06T07:56:57;0.67;;;0.60;;
69410;SDS011;56604;48.652;9.194;2023-08-06T07:59:23;0.60;;;0.60;;
69410;SDS011;56604;48.652;9.194;2023-08-06T08:01:48;0.70;;;0.70;;
69410;SDS011;56604;48.652;9.194;2023-08-06T08:04:14;1.90;;;0.57;;
69410;SDS011;56604;48.652;9.194;2023-08-06T08:06:39;0.80;;;0.60;;
69410;SDS011;56604;48.652;9.194;2023-08-06T08:09:04;0.53;;;0.53;;
69410;SDS011;56604;48.652;9.194;2023-08-06T08:11:29;0.60;;;0.60;;
69410;SDS011;56604;48.652;9.194;2023-08-06T08:13:55;2.50;;;0.60;;
69410;SDS011;56604;48.652;9.194;2023-08-06T08:16:20;0.50;;;0.50;;
69410;SDS011;56604;48.652;9.194;2023-08-06T08:18:45;2.50;;;0.60;;
69410;SDS011;56604;48.652;9.194;2023-08-06T08:21:11;0.50;;;0.50;;
69410;SDS011;56604;48.652;9.194;2023-08-06T08:23:37;0.50;;;0.50;;
69410;SDS011;56604;48.652;9.194;2023-08-06T08:26:04;0.50;;;0.50;;
69410;SDS011;56604;48.652;9.194;2023-08-06T08:28:29;0.70;;;0.50;;
69410;SDS011;56604;48.652;9.194;2023-08-06T08:30:55;1.77;;;0.50;;
69410;SDS011;56604;48.652;9.194;2023-08-06T08:33:21;0.50;;;0.50;;
69410;SDS011;56604;48.652;9.194;2023-08-06T08:35:47;0.50;;;0.50;;
69410;SDS011;56604;48.652;9.194;2023-08-06T08:38:12;0.50;;;0.50;;
69410;SDS011;56604;48.652;9.194;2023-08-06T08:40:40;2.90;;;0.60;;
69410;SDS011;56604;48.652;9.194;2023-08-06T08:43:14;4.53;;;0.50;;
69410;SDS011;56604;48.652;9.194;2023-08-06T08:45:40;0.50;;;0.50;;
69410;SDS011;56604;48.652;9.194;2023-08-06T08:48:08;0.60;;;0.60;;
69410;SDS011;56604;48.652;9.194;2023-08-06T08:50:36;0.60;;;0.50;;
69410;SDS011;56604;48.652;9.194;2023-08-06T08:53:01;0.57;;;0.57;;
69410;SDS011;56604;48.652;9.194;2023-08-06T08:55:27;0.50;;;0.50;;
69410;SDS011;56604;48.652;9.194;2023-08-06T08:57:53;0.50;;;0.50;;
69410;SDS011;56604;48.652;9.194;2023-08-06T09:00:18;0.40;;;0.40;;
69410;SDS011;56604;48.652;9.194;2023-08-06T09:02:43;0.50;;;0.50;;
69410;SDS011;56604;48.652;9.194;2023-08-06T09:05:10;0.60;;;0.60;;
69410;SDS011;56604;48.652;9.194;2023-08-06T09:07:44;0.60;;;0.60;;
69410;SDS011;56604;48.652;9.194;2023-08-06T09:10:16;0.80;;;0.60;;
69410;SDS011;56604;48.652;9.194;2023-08-06T09:12:46;0.60;;;0.60;;
69410;SDS011;56604;48.652;9.194;2023-08-06T09:15:11;0.50;;;0.50;;
69410;SDS011;56604;48.652;9.194;2023-08-06T09:17:38;0.50;;;0.50;;
69410;SDS011;56604;48.652;9.194;2023-08-06T09:20:12;0.50;;;0.50;;
69410;SDS011;56604;48.652;9.194;2023-08-06T09:22:39;0.50;;;0.50;;
69410;SDS011;56604;48.652;9.194;2023-08-06T09:25:06;0.50;;;0.50;;
69410;SDS011;56604;48.652;9.194;2023-08-06T09:27:35;0.50;;;0.50;;
69410;SDS011;56604;48.652;9.194;2023-08-06T09:30:03;1.00;;;0.50;;
69410;SDS011;56604;48.652;9.194;2023-08-06T09:33:03;0.50;;;0.50;;
69410;SDS011;56604;48.652;9.194;2023-08-06T09:35:21;0.60;;;0.60;;
69410;SDS011;56604;48.652;9.194;2023-08-06T09:37:48;0.50;;;0.50;;
69410;SDS011;56604;48.652;9.194;2023-08-06T09:42:56;0.50;;;0.50;;
69410;SDS011;56604;48.652;9.194;2023-08-06T09:45:23;0.50;;;0.50;;
69410;SDS011;56604;48.652;9.194;2023-08-06T09:47:58;0.50;;;0.50;;
69410;SDS011;56604;48.652;9.194;2023-08-06T09:50:29;0.60;;;0.60;;
69410;SDS011;56604;48.652;9.194;2023-08-06T09:53:01;0.90;;;0.90;;
69410;SDS011;56604;48.652;9.194;2023-08-06T09:55:27;1.13;;;0.50;;
69410;SDS011;56604;48.652;9.194;2023-08-06T09:57:53;0.70;;;0.70;;
69410;SDS011;56604;48.652;9.194;2023-08-06T10:00:20;1.63;;;1.00;;
69410;SDS011;56604;48.652;9.194;2023-08-06T10:02:46;0.50;;;0.50;;
69410;SDS011;56604;48.652;9.194;2023-08-06T10:05:13;0.60;;;0.60;;
69410;SDS011;56604;48.652;9.194;2023-08-06T10:07:40;0.50;;;0.50;;
69410;SDS011;56604;48.652;9.194;2023-08-06T10:10:07;0.47;;;0.47;;
69410;SDS011;56604;48.652;9.194;2023-08-06T10:12:34;0.67;;;0.67;;
69410;SDS011;56604;48.652;9.194;2023-08-06T10:15:04;0.50;;;0.50;;
69410;SDS011;56604;48.652;9.194;2023-08-06T10:17:34;0.60;;;0.60;;
69410;SDS011;56604;48.652;9.194;2023-08-06T10:20:02;0.50;;;0.50;;
69410;SDS011;56604;48.652;9.194;2023-08-06T10:22:33;0.43;;;0.43;;
69410;SDS011;56604;48.652;9.194;2023-08-06T10:25:00;1.83;;;0.60;;
69410;SDS011;56604;48.652;9.194;2023-08-06T10:32:54;0.80;;;0.60;;
69410;SDS011;56604;48.652;9.194;2023-08-06T10:35:35;2.00;;;0.70;;
69410;SDS011;56604;48.652;9.194;2023-08-06T10:38:14;0.50;;;0.50;;
69410;SDS011;56604;48.652;9.194;2023-08-06T10:45:53;0.50;;;0.50;;
69410;SDS011;56604;48.652;9.194;2023-08-06T10:48:28;0.83;;;0.53;;
69410;SDS011;56604;48.652;9.194;2023-08-06T10:50:54;2.10;;;0.70;;
69410;SDS011;56604;48.652;9.194;2023-08-06T10:53:21;3.07;;;0.70;;
69410;SDS011;56604;48.652;9.194;2023-08-06T10:55:46;2.50;;;0.60;;
69410;SDS011;56604;48.652;9.194;2023-08-06T10:58:11;0.50;;;0.50;;
69410;SDS011;56604;48.652;9.194;2023-08-06T11:00:41;0.47;;;0.47;;
69410;SDS011;56604;48.652;9.194;2023-08-06T11:03:07;0.50;;;0.50;;
69410;SDS011;56604;48.652;9.194;2023-08-06T11:05:33;0.50;;;0.50;;
69410;SDS011;56604;48.652;9.194;2023-08-06T11:08:00;0.50;;;0.50;;
69410;SDS011;56604;48.652;9.194;2023-08-06T11:10:25;1.83;;;0.50;;
69410;SDS011;56604;48.652;9.194;2023-08-06T11:12:50;0.60;;;0.60;;
69410;SDS011;56604;48.652;9.194;2023-08-06T11:15:16;0.80;;;0.80;;
69410;SDS011;56604;48.652;9.194;2023-08-06T11:17:41;0.57;;;0.57;;
69410;SDS011;56604;48.652;9.194;2023-08-06T11:20:07;0.60;;;0.60;;
69410;SDS011;56604;48.652;9.194;2023-08-06T11:22:33;0.50;;;0.50;;
69410;SDS011;56604;48.652;9.194;2023-08-06T11:24:58;1.33;;;0.50;;
69410;SDS011;56604;48.652;9.194;2023-08-06T11:27:26;0.50;;;0.50;;
69410;SDS011;56604;48.652;9.194;2023-08-06T11:29:53;1.50;;;1.50;;
69410;SDS011;56604;48.652;9.194;2023-08-06T11:32:18;0.90;;;0.90;;
69410;SDS011;56604;48.652;9.194;2023-08-06T11:34:43;0.90;;;0.90;;
69410;SDS011;56604;48.652;9.194;2023-08-06T11:37:10;0.70;;;0.70;;
69410;SDS011;56604;48.652;9.194;2023-08-06T11:39:37;0.80;;;0.80;;
69410;SDS011;56604;48.652;9.194;2023-08-06T11:42:03;6.00;;;0.73;;
69410;SDS011;56604;48.652;9.194;2023-08-06T11:44:33;1.03;;;0.73;;
69410;SDS011;56604;48.652;9.194;2023-08-06T11:47:00;0.60;;;0.60;;
69410;SDS011;56604;48.652;9.194;2023-08-06T11:49:42;0.70;;;0.70;;
69410;SDS011;56604;48.652;9.194;2023-08-06T11:54:59;0.70;;;0.70;;
69410;SDS011;56604;48.652;9.194;2023-08-06T11:57:32;1.53;;;0.80;;
69410;SDS011;56604;48.652;9.194;2023-08-06T12:00:03;0.97;;;0.97;;
69410;SDS011;56604;48.652;9.194;2023-08-06T12:02:33;2.30;;;0.83;;
69410;SDS011;56604;48.652;9.194;2023-08-06T12:05:09;1.70;;;0.80;;
69410;SDS011;56604;48.652;9.194;2023-08-06T12:07:36;1.00;;;1.00;;
69410;SDS011;56604;48.652;9.194;2023-08-06T12:10:03;0.83;;;0.83;;
69410;SDS011;56604;48.652;9.194;2023-08-06T12:12:28;0.77;;;0.77;;
69410;SDS011;56604;48.652;9.194;2023-08-06T12:14:54;2.83;;;0.80;;
69410;SDS011;56604;48.652;9.194;2023-08-06T12:17:21;1.10;;;0.77;;
69410;SDS011;56604;48.652;9.194;2023-08-06T12:19:51;1.10;;;1.00;;
69410;SDS011;56604;48.652;9.194;2023-08-06T12:22:17;1.10;;;1.10;;
69410;SDS011;56604;48.652;9.194;2023-08-06T12:24:43;1.30;;;1.20;;
69410;SDS011;56604;48.652;9.194;2023-08-06T12:27:09;1.20;;;1.10;;
69410;SDS011;56604;48.652;9.194;2023-08-06T12:29:35;3.90;;;1.70;;
69410;SDS011;56604;48.652;9.194;2023-08-06T12:32:03;0.97;;;0.97;;
69410;SDS011;56604;48.652;9.194;2023-08-06T12:34:29;2.00;;;1.20;;
69410;SDS011;56604;48.652;9.194;2023-08-06T12:36:54;1.10;;;1.10;;
69410;SDS011;56604;48.652;9.194;2023-08-06T12:39:19;1.17;;;1.10;;
69410;SDS011;56604;48.652;9.194;2023-08-06T12:41:45;1.00;;;1.00;;
69410;SDS011;56604;48.652;9.194;2023-08-06T12:44:11;0.80;;;0.80;;
69410;SDS011;56604;48.652;9.194;2023-08-06T12:46:37;0.90;;;0.90;;
69410;SDS011;56604;48.652;9.194;2023-08-06T12:49:02;0.80;;;0.80;;
69410;SDS011;56604;48.652;9.194;2023-08-06T12:51:27;4.00;;;1.00;;
69410;SDS011;56604;48.652;9.194;2023-08-06T12:53:53;0.90;;;0.90;;
69410;SDS011;56604;48.652;9.194;2023-08-06T12:56:18;0.97;;;0.97;;
69410;SDS011;56604;48.652;9.194;2023-08-06T12:58:43;1.00;;;1.00;;
69410;SDS011;56604;48.652;9.194;2023-08-06T13:01:09;0.80;;;0.80;;
69410;SDS011;56604;48.652;9.194;2023-08-06T13:03:34;2.47;;;0.87;;
69410;SDS011;56604;48.652;9.194;2023-08-06T13:06:00;6.90;;;1.07;;
69410;SDS011;56604;48.652;9.194;2023-08-06T13:08:25;0.80;;;0.80;;
69410;SDS011;56604;48.652;9.194;2023-08-06T13:10:50;2.87;;;0.90;;
69410;SDS011;56604;48.652;9.194;2023-08-06T13:13:16;0.70;;;0.70;;
69410;SDS011;56604;48.652;9.194;2023-08-06T13:15:41;1.00;;;1.00;;
69410;SDS011;56604;48.652;9.194;2023-08-06T13:18:06;1.10;;;1.10;;
69410;SDS011;56604;48.652;9.194;2023-08-06T13:20:33;0.80;;;0.80;;
69410;SDS011;56604;48.652;9.194;2023-08-06T13:22:59;0.93;;;0.90;;
69410;SDS011;56604;48.652;9.194;2023-08-06T13:25:27;1.53;;;0.90;;
69410;SDS011;56604;48.652;9.194;2023-08-06T13:27:54;3.07;;;1.00;;
69410;SDS011;56604;48.652;9.194;2023-08-06T13:30:19;1.00;;;1.00;;
69410;SDS011;56604;48.652;9.194;2023-08-06T13:32:45;1.47;;;1.00;;
69410;SDS011;56604;48.652;9.194;2023-08-06T13:35:11;8.47;;;1.00;;
69410;SDS011;56604;48.652;9.194;2023-08-06T13:37:36;0.70;;;0.70;;
69410;SDS011;56604;48.652;9.194;2023-08-06T13:40:01;19.77;;;1.00;;
69410;SDS011;56604;48.652;9.194;2023-08-06T13:42:27;0.83;;;0.70;;
69410;SDS011;56604;48.652;9.194;2023-08-06T13:44:53;2.97;;;0.70;;
69410;SDS011;56604;48.652;9.194;2023-08-06T13:47:24;2.80;;;0.83;;
69410;SDS011;56604;48.652;9.194;2023-08-06T13:49:49;0.70;;;0.70;;
69410;SDS011;56604;48.652;9.194;2023-08-06T13:52:15;0.60;;;0.60;;
69410;SDS011;56604;48.652;9.194;2023-08-06T13:54:40;2.93;;;1.10;;
69410;SDS011;56604;48.652;9.194;2023-08-06T13:57:06;1.00;;;1.00;;
69410;SDS011;56604;48.652;9.194;2023-08-06T13:59:32;2.63;;;0.70;;
69410;SDS011;56604;48.652;9.194;2023-08-06T14:01:57;5.40;;;0.90;;
69410;SDS011;56604;48.652;9.194;2023-08-06T14:04:24;2.70;;;0.90;;
69410;SDS011;56604;48.652;9.194;2023-08-06T14:06:51;0.83;;;0.80;;
69410;SDS011;56604;48.652;9.194;2023-08-06T14:09:16;2.40;;;1.03;;
69410;SDS011;56604;48.652;9.194;2023-08-06T14:11:43;1.00;;;0.83;;
69410;SDS011;56604;48.652;9.194;2023-08-06T14:14:10;4.30;;;1.00;;
69410;SDS011;56604;48.652;9.194;2023-08-06T14:16:36;0.77;;;0.70;;
69410;SDS011;56604;48.652;9.194;2023-08-06T14:19:01;0.90;;;0.90;;
69410;SDS011;56604;48.652;9.194;2023-08-06T14:21:26;0.80;;;0.80;;
69410;SDS011;56604;48.652;9.194;2023-08-06T14:23:52;0.93;;;0.90;;
69410;SDS011;56604;48.652;9.194;2023-08-06T14:26:17;0.93;;;0.83;;
69410;SDS011;56604;48.652;9.194;2023-08-06T14:28:43;1.23;;;1.03;;
69410;SDS011;56604;48.652;9.194;2023-08-06T14:31:08;1.10;;;1.10;;
69410;SDS011;56604;48.652;9.194;2023-08-06T14:33:34;1.80;;;1.10;;
69410;SDS011;56604;48.652;9.194;2023-08-06T14:35:59;0.90;;;0.90;;
69410;SDS011;56604;48.652;9.194;2023-08-06T14:38:25;1.30;;;1.20;;
69410;SDS011;56604;48.652;9.194;2023-08-06T14:40:50;0.90;;;0.90;;
69410;SDS011;56604;48.652;9.194;2023-08-06T14:43:15;1.30;;;1.20;;
69410;SDS011;56604;48.652;9.194;2023-08-06T14:45:41;1.43;;;0.97;;
69410;SDS011;56604;48.652;9.194;2023-08-06T14:48:06;1.57;;;1.00;;
69410;SDS011;56604;48.652;9.194;2023-08-06T14:50:33;1.07;;;0.83;;
69410;SDS011;56604;48.652;9.194;2023-08-06T14:52:58;2.23;;;1.30;;
69410;SDS011;56604;48.652;9.194;2023-08-06T14:55:27;3.90;;;1.67;;
69410;SDS011;56604;48.652;9.194;2023-08-06T14:57:52;1.53;;;1.30;;
69410;SDS011;56604;48.652;9.194;2023-08-06T15:00:18;1.40;;;1.03;;
69410;SDS011;56604;48.652;9.194;2023-08-06T15:02:44;3.33;;;0.80;;
69410;SDS011;56604;48.652;9.194;2023-08-06T15:05:09;0.70;;;0.70;;